sensor_id;sensor_type;location;lat;lon;timestamp;pressure;altitude;pressure_sealevel;temperature;humidity
19086;BME280;9675;51.538;6.728;2023-04-06T00:01:08;101489.38;;;8.66;50.00
19086;BME280;9675;51.538;6.728;2023-04-06T00:03:35;101484.84;;;8.62;49.09
19086;BME280;9675;51.538;6.728;2023-04-06T00:06:03;101482.97;;;8.60;50.33
19086;BME280;9675;51.538;6.728;2023-04-06T00:08:30;101486.09;;;8.56;49.47
19086;BME280;9675;51.538;6.728;2023-04-06T00:10:57;101484.00;;;8.50;50.54
19086;BME280;9675;51.538;6.728;2023-04-06T00:13:25;101479.56;;;8.47;50.38
19086;BME280;9675;51.538;6.728;2023-04-06T00:15:52;101474.25;;;8.44;50.81
19086;BME280;9675;51.538;6.728;2023-04-06T00:18:20;101468.88;;;8.41;49.66
19086;BME280;9675;51.538;6.728;2023-04-06T00:20:47;101464.44;;;8.39;50.58
19086;BME280;9675;51.538;6.728;2023-04-06T00:23:16;101471.03;;;8.35;50.39
19086;BME280;9675;51.538;6.728;2023-04-06T00:25:43;101469.16;;;8.33;51.12
19086;BME280;9675;51.538;6.728;2023-04-06T00:28:10;101473.28;;;8.31;51.24
19086;BME280;9675;51.538;6.728;2023-04-06T00:30:38;101461.78;;;8.26;50.85
19086;BME280;9675;51.538;6.728;2023-04-06T00:33:05;101465.81;;;8.22;50.66
19086;BME280;9675;51.538;6.728;2023-04-06T00:35:34;101460.47;;;8.19;50.57
19086;BME280;9675;51.538;6.728;2023-04-06T00:38:01;101463.59;;;8.15;51.54
19086;BME280;9675;51.538;6.728;2023-04-06T00:40:28;101455.59;;;8.10;51.30
19086;BME280;9675;51.538;6.728;2023-04-06T00:42:56;101454.50;;;8.07;50.93
19086;BME280;9675;51.538;6.728;2023-04-06T00:45:24;101451.81;;;8.05;51.01
19086;BME280;9675;51.538;6.728;2023-04-06T00:47:51;101450.75;;;8.02;51.77
19086;BME280;9675;51.538;6.728;2023-04-06T00:50:18;101445.38;;;7.99;51.76
19086;BME280;9675;51.538;6.728;2023-04-06T00:52:47;101440.94;;;7.96;51.71
19086;BME280;9675;51.538;6.728;2023-04-06T00:55:14;101438.97;;;7.92;51.49
19086;BME280;9675;51.538;6.728;2023-04-06T00:57:41;101442.06;;;7.88;50.79
19086;BME280;9675;51.538;6.728;2023-04-06T01:00:09;101441.09;;;7.86;50.99
19086;BME280;9675;51.538;6.728;2023-04-06T01:02:37;101434.84;;;7.83;51.14
19086;BME280;9675;51.538;6.728;2023-04-06T01:05:06;101436.31;;;7.79;52.44
19086;BME280;9675;51.538;6.728;2023-04-06T01:07:33;101434.31;;;7.75;52.02
19086;BME280;9675;51.538;6.728;2023-04-06T01:10:02;101426.41;;;7.72;51.61
19086;BME280;9675;51.538;6.728;2023-04-06T01:12:30;101425.41;;;7.70;51.66
19086;BME280;9675;51.538;6.728;2023-04-06T01:14:57;101418.31;;;7.66;52.74
19086;BME280;9675;51.538;6.728;2023-04-06T01:17:24;101420.56;;;7.61;52.51
19086;BME280;9675;51.538;6.728;2023-04-06T01:19:52;101419.34;;;7.56;52.16
19086;BME280;9675;51.538;6.728;2023-04-06T01:22:21;101418.44;;;7.56;52.32
19086;BME280;9675;51.538;6.728;2023-04-06T01:24:48;101412.97;;;7.51;52.74
19086;BME280;9675;51.538;6.728;2023-04-06T01:27:15;101411.09;;;7.49;52.92
19086;BME280;9675;51.538;6.728;2023-04-06T01:33:24;101408.78;;;7.40;53.02
19086;BME280;9675;51.538;6.728;2023-04-06T01:35:51;101408.53;;;7.37;52.72
19086;BME280;9675;51.538;6.728;2023-04-06T01:38:20;101405.78;;;7.34;52.71
19086;BME280;9675;51.538;6.728;2023-04-06T01:40:47;101406.44;;;7.32;52.92
19086;BME280;9675;51.538;6.728;2023-04-06T01:43:14;101403.44;;;7.25;52.81
19086;BME280;9675;51.538;6.728;2023-04-06T01:45:44;101399.91;;;7.23;53.74
19086;BME280;9675;51.538;6.728;2023-04-06T01:48:11;101408.16;;;7.19;53.08
19086;BME280;9675;51.538;6.728;2023-04-06T01:50:38;101394.31;;;7.17;53.85
19086;BME280;9675;51.538;6.728;2023-04-06T01:53:06;101395.78;;;7.14;53.83
19086;BME280;9675;51.538;6.728;2023-04-06T01:55:34;101393.88;;;7.11;54.18
19086;BME280;9675;51.538;6.728;2023-04-06T01:58:01;101391.00;;;7.07;53.47
19086;BME280;9675;51.538;6.728;2023-04-06T02:00:28;101400.22;;;7.05;53.88
19086;BME280;9675;51.538;6.728;2023-04-06T02:02:56;101393.22;;;7.02;53.82
19086;BME280;9675;51.538;6.728;2023-04-06T02:05:23;101390.34;;;6.98;53.70
19086;BME280;9675;51.538;6.728;2023-04-06T02:07:50;101389.25;;;6.94;53.83
19086;BME280;9675;51.538;6.728;2023-04-06T02:10:17;101396.81;;;6.93;54.22
19086;BME280;9675;51.538;6.728;2023-04-06T02:12:46;101391.34;;;6.88;54.56
19086;BME280;9675;51.538;6.728;2023-04-06T02:15:13;101385.22;;;6.86;54.25
19086;BME280;9675;51.538;6.728;2023-04-06T02:17:40;101384.13;;;6.82;54.60
19086;BME280;9675;51.538;6.728;2023-04-06T02:20:09;101387.31;;;6.80;54.20
19086;BME280;9675;51.538;6.728;2023-04-06T02:22:36;101385.44;;;6.77;54.93
19086;BME280;9675;51.538;6.728;2023-04-06T02:25:04;101381.75;;;6.74;55.06
19086;BME280;9675;51.538;6.728;2023-04-06T02:27:31;101381.53;;;6.71;54.35
19086;BME280;9675;51.538;6.728;2023-04-06T02:30:00;101380.44;;;6.67;54.87
19086;BME280;9675;51.538;6.728;2023-04-06T02:32:27;101382.88;;;6.66;55.09
19086;BME280;9675;51.538;6.728;2023-04-06T02:34:54;101374.75;;;6.60;55.00
19086;BME280;9675;51.538;6.728;2023-04-06T02:37:21;101382.41;;;6.60;54.94
19086;BME280;9675;51.538;6.728;2023-04-06T02:39:49;101384.00;;;6.58;55.89
19086;BME280;9675;51.538;6.728;2023-04-06T02:42:17;101375.31;;;6.56;55.07
19086;BME280;9675;51.538;6.728;2023-04-06T02:44:44;101376.06;;;6.55;54.94
19086;BME280;9675;51.538;6.728;2023-04-06T02:47:12;101372.53;;;6.53;55.23
19086;BME280;9675;51.538;6.728;2023-04-06T02:49:39;101379.19;;;6.51;55.17
19086;BME280;9675;51.538;6.728;2023-04-06T02:52:06;101372.97;;;6.47;55.59
19086;BME280;9675;51.538;6.728;2023-04-06T02:54:34;101375.28;;;6.44;55.84
19086;BME280;9675;51.538;6.728;2023-04-06T02:57:01;101370.03;;;6.43;55.50
19086;BME280;9675;51.538;6.728;2023-04-06T02:59:28;101366.50;;;6.40;55.72
19086;BME280;9675;51.538;6.728;2023-04-06T03:01:55;101376.59;;;6.39;55.63
19086;BME280;9675;51.538;6.728;2023-04-06T03:04:24;101377.72;;;6.43;55.30
19086;BME280;9675;51.538;6.728;2023-04-06T03:06:51;101372.03;;;6.35;56.08
19086;BME280;9675;51.538;6.728;2023-04-06T03:09:18;101369.28;;;6.32;56.33
19086;BME280;9675;51.538;6.728;2023-04-06T03:11:45;101373.38;;;6.30;56.33
19086;BME280;9675;51.538;6.728;2023-04-06T03:14:12;101367.16;;;6.26;55.95
19086;BME280;9675;51.538;6.728;2023-04-06T03:16:39;101365.09;;;6.22;56.28
19086;BME280;9675;51.538;6.728;2023-04-06T03:19:07;101363.34;;;6.21;56.42
19086;BME280;9675;51.538;6.728;2023-04-06T03:21:35;101367.44;;;6.19;56.37
19086;BME280;9675;51.538;6.728;2023-04-06T03:24:03;101361.31;;;6.17;56.38
19086;BME280;9675;51.538;6.728;2023-04-06T03:26:30;101360.34;;;6.15;56.76
19086;BME280;9675;51.538;6.728;2023-04-06T03:28:57;101365.31;;;6.14;56.99
19086;BME280;9675;51.538;6.728;2023-04-06T03:31:25;101361.75;;;6.12;56.49
19086;BME280;9675;51.538;6.728;2023-04-06T03:33:52;101361.53;;;6.09;56.81
19086;BME280;9675;51.538;6.728;2023-04-06T03:36:20;101365.75;;;6.08;56.39
19086;BME280;9675;51.538;6.728;2023-04-06T03:38:48;101368.19;;;6.07;56.68
19086;BME280;9675;51.538;6.728;2023-04-06T03:41:15;101359.66;;;6.06;56.91
19086;BME280;9675;51.538;6.728;2023-04-06T03:43:42;101362.84;;;6.04;56.99
19086;BME280;9675;51.538;6.728;2023-04-06T03:46:10;101364.38;;;6.02;56.78
19086;BME280;9675;51.538;6.728;2023-04-06T03:48:37;101358.28;;;6.00;56.85
19086;BME280;9675;51.538;6.728;2023-04-06T03:51:04;101358.84;;;5.95;56.95
19086;BME280;9675;51.538;6.728;2023-04-06T03:53:32;101356.03;;;5.92;57.35
19086;BME280;9675;51.538;6.728;2023-04-06T03:56:00;101355.03;;;5.90;57.11
19086;BME280;9675;51.538;6.728;2023-04-06T03:58:27;101353.13;;;5.88;57.04
19086;BME280;9675;51.538;6.728;2023-04-06T04:00:54;101357.09;;;5.84;57.21
19086;BME280;9675;51.538;6.728;2023-04-06T04:03:21;101358.75;;;5.84;57.18
19086;BME280;9675;51.538;6.728;2023-04-06T04:05:49;101352.75;;;5.83;57.53
19086;BME280;9675;51.538;6.728;2023-04-06T04:08:16;101355.19;;;5.82;56.81
19086;BME280;9675;51.538;6.728;2023-04-06T04:10:44;101352.50;;;5.80;57.14
19086;BME280;9675;51.538;6.728;2023-04-06T04:13:12;101359.19;;;5.78;57.20
19086;BME280;9675;51.538;6.728;2023-04-06T04:15:39;101357.25;;;5.76;57.20
19086;BME280;9675;51.538;6.728;2023-04-06T04:18:06;101356.28;;;5.74;57.32
19086;BME280;9675;51.538;6.728;2023-04-06T04:20:33;101353.72;;;5.74;57.34
19086;BME280;9675;51.538;6.728;2023-04-06T04:23:01;101355.38;;;5.73;57.44
19086;BME280;9675;51.538;6.728;2023-04-06T04:25:28;101355.38;;;5.73;57.60
19086;BME280;9675;51.538;6.728;2023-04-06T04:27:55;101362.91;;;5.72;57.44
19086;BME280;9675;51.538;6.728;2023-04-06T04:30:23;101353.25;;;5.68;57.43
19086;BME280;9675;51.538;6.728;2023-04-06T04:32:51;101355.56;;;5.65;57.56
19086;BME280;9675;51.538;6.728;2023-04-06T04:35:18;101362.22;;;5.63;57.39
19086;BME280;9675;51.538;6.728;2023-04-06T04:37:45;101359.53;;;5.61;57.47
19086;BME280;9675;51.538;6.728;2023-04-06T04:40:12;101360.22;;;5.59;57.57
19086;BME280;9675;51.538;6.728;2023-04-06T04:42:40;101363.53;;;5.57;57.77
19086;BME280;9675;51.538;6.728;2023-04-06T04:45:08;101354.75;;;5.54;57.55
19086;BME280;9675;51.538;6.728;2023-04-06T04:47:36;101359.47;;;5.49;57.86
19086;BME280;9675;51.538;6.728;2023-04-06T04:50:05;101362.81;;;5.48;57.85
19086;BME280;9675;51.538;6.728;2023-04-06T04:52:32;101353.13;;;5.44;57.95
19086;BME280;9675;51.538;6.728;2023-04-06T04:54:59;101343.69;;;5.43;57.43
19086;BME280;9675;51.538;6.728;2023-04-06T04:57:26;101353.66;;;5.40;58.04
19086;BME280;9675;51.538;6.728;2023-04-06T04:59:53;101350.88;;;5.37;58.13
19086;BME280;9675;51.538;6.728;2023-04-06T05:02:20;101355.97;;;5.37;58.19
19086;BME280;9675;51.538;6.728;2023-04-06T05:04:49;101351.16;;;5.30;57.84
19086;BME280;9675;51.538;6.728;2023-04-06T05:07:16;101352.72;;;5.28;58.21
19086;BME280;9675;51.538;6.728;2023-04-06T05:09:46;101355.78;;;5.24;57.99
19086;BME280;9675;51.538;6.728;2023-04-06T05:12:13;101341.75;;;5.19;58.60
19086;BME280;9675;51.538;6.728;2023-04-06T05:14:41;101353.53;;;5.17;58.72
19086;BME280;9675;51.538;6.728;2023-04-06T05:17:09;101355.06;;;5.15;58.69
19086;BME280;9675;51.538;6.728;2023-04-06T05:19:36;101365.13;;;5.13;58.69
19086;BME280;9675;51.538;6.728;2023-04-06T05:22:04;101357.38;;;5.12;58.69
19086;BME280;9675;51.538;6.728;2023-04-06T05:24:32;101356.34;;;5.10;58.96
19086;BME280;9675;51.538;6.728;2023-04-06T05:27:00;101361.34;;;5.08;58.58
19086;BME280;9675;51.538;6.728;2023-04-06T05:29:29;101355.25;;;5.06;59.04
19086;BME280;9675;51.538;6.728;2023-04-06T05:31:57;101358.56;;;5.05;59.37
19086;BME280;9675;51.538;6.728;2023-04-06T05:34:24;101356.75;;;5.04;58.97
19086;BME280;9675;51.538;6.728;2023-04-06T05:36:52;101358.31;;;5.02;58.88
19086;BME280;9675;51.538;6.728;2023-04-06T05:39:20;101358.69;;;5.07;59.35
19086;BME280;9675;51.538;6.728;2023-04-06T05:41:51;101353.31;;;5.04;58.95
19086;BME280;9675;51.538;6.728;2023-04-06T05:44:18;101351.16;;;4.98;59.15
19086;BME280;9675;51.538;6.728;2023-04-06T05:46:45;101353.63;;;4.97;59.38
19086;BME280;9675;51.538;6.728;2023-04-06T05:49:12;101348.25;;;4.94;59.13
19086;BME280;9675;51.538;6.728;2023-04-06T05:51:40;101358.47;;;4.94;59.35
19086;BME280;9675;51.538;6.728;2023-04-06T05:54:07;101354.91;;;4.92;59.04
19086;BME280;9675;51.538;6.728;2023-04-06T05:56:35;101353.13;;;4.91;59.43
19086;BME280;9675;51.538;6.728;2023-04-06T05:59:02;101356.66;;;4.93;59.41
19086;BME280;9675;51.538;6.728;2023-04-06T06:01:29;101347.50;;;4.95;59.67
19086;BME280;9675;51.538;6.728;2023-04-06T06:03:57;101349.81;;;4.92;59.36
19086;BME280;9675;51.538;6.728;2023-04-06T06:06:24;101356.66;;;4.93;59.34
19086;BME280;9675;51.538;6.728;2023-04-06T06:08:51;101351.56;;;4.93;59.24
19086;BME280;9675;51.538;6.728;2023-04-06T06:11:18;101348.25;;;4.94;59.30
19086;BME280;9675;51.538;6.728;2023-04-06T06:13:47;101336.25;;;4.93;59.74
19086;BME280;9675;51.538;6.728;2023-04-06T06:16:16;101344.94;;;4.95;60.00
19086;BME280;9675;51.538;6.728;2023-04-06T06:18:44;101339.97;;;4.96;59.95
19086;BME280;9675;51.538;6.728;2023-04-06T06:21:11;101344.41;;;4.99;59.75
19086;BME280;9675;51.538;6.728;2023-04-06T06:23:39;101339.44;;;5.00;59.49
19086;BME280;9675;51.538;6.728;2023-04-06T06:26:06;101342.88;;;5.01;59.72
19086;BME280;9675;51.538;6.728;2023-04-06T06:28:33;101348.75;;;5.00;59.51
19086;BME280;9675;51.538;6.728;2023-04-06T06:31:02;101349.66;;;5.00;59.11
19086;BME280;9675;51.538;6.728;2023-04-06T06:33:30;101352.31;;;5.02;59.18
19086;BME280;9675;51.538;6.728;2023-04-06T06:35:58;101350.00;;;5.05;59.54
19086;BME280;9675;51.538;6.728;2023-04-06T06:38:26;101348.69;;;5.10;59.16
19086;BME280;9675;51.538;6.728;2023-04-06T06:40:53;101345.75;;;5.16;59.41
19086;BME280;9675;51.538;6.728;2023-04-06T06:43:24;101345.22;;;5.20;59.56
19086;BME280;9675;51.538;6.728;2023-04-06T06:45:54;101346.47;;;5.25;59.50
19086;BME280;9675;51.538;6.728;2023-04-06T06:48:22;101344.16;;;5.28;59.12
19086;BME280;9675;51.538;6.728;2023-04-06T06:50:54;101347.84;;;5.31;59.24
19086;BME280;9675;51.538;6.728;2023-04-06T06:53:24;101349.22;;;5.38;59.23
19086;BME280;9675;51.538;6.728;2023-04-06T06:56:00;101351.59;;;5.46;59.17
19086;BME280;9675;51.538;6.728;2023-04-06T06:58:31;101342.47;;;5.50;59.00
19086;BME280;9675;51.538;6.728;2023-04-06T07:00:59;101343.84;;;5.56;59.09
19086;BME280;9675;51.538;6.728;2023-04-06T07:03:28;101332.31;;;5.62;58.83
19086;BME280;9675;51.538;6.728;2023-04-06T07:05:56;101325.13;;;5.68;59.32
19086;BME280;9675;51.538;6.728;2023-04-06T07:08:24;101330.72;;;5.74;58.77
19086;BME280;9675;51.538;6.728;2023-04-06T07:10:52;101326.84;;;5.79;58.58
19086;BME280;9675;51.538;6.728;2023-04-06T07:13:21;101333.44;;;5.87;58.51
19086;BME280;9675;51.538;6.728;2023-04-06T07:15:49;101331.38;;;5.93;58.53
19086;BME280;9675;51.538;6.728;2023-04-06T07:18:17;101330.16;;;6.00;58.26
19086;BME280;9675;51.538;6.728;2023-04-06T07:20:46;101323.88;;;6.06;57.82
19086;BME280;9675;51.538;6.728;2023-04-06T07:23:13;101324.41;;;6.14;57.65
19086;BME280;9675;51.538;6.728;2023-04-06T07:25:41;101323.09;;;6.19;57.81
19086;BME280;9675;51.538;6.728;2023-04-06T07:28:08;101322.53;;;6.23;57.80
19086;BME280;9675;51.538;6.728;2023-04-06T07:30:37;101325.56;;;6.29;57.46
19086;BME280;9675;51.538;6.728;2023-04-06T07:33:05;101322.00;;;6.38;57.79
19086;BME280;9675;51.538;6.728;2023-04-06T07:35:32;101324.88;;;6.43;57.45
19086;BME280;9675;51.538;6.728;2023-04-06T07:38:02;101316.56;;;6.46;57.33
19086;BME280;9675;51.538;6.728;2023-04-06T07:40:29;101327.25;;;6.52;57.01
19086;BME280;9675;51.538;6.728;2023-04-06T07:42:57;101323.44;;;6.58;57.92
19086;BME280;9675;51.538;6.728;2023-04-06T07:45:24;101315.25;;;6.62;57.05
19086;BME280;9675;51.538;6.728;2023-04-06T07:47:52;101315.66;;;6.68;57.44
19086;BME280;9675;51.538;6.728;2023-04-06T07:50:19;101321.13;;;6.73;57.00
19086;BME280;9675;51.538;6.728;2023-04-06T07:52:47;101316.44;;;6.79;57.43
19086;BME280;9675;51.538;6.728;2023-04-06T07:55:16;101316.00;;;6.84;57.21
19086;BME280;9675;51.538;6.728;2023-04-06T07:57:44;101309.66;;;6.91;57.28
19086;BME280;9675;51.538;6.728;2023-04-06T08:00:13;101310.19;;;6.99;57.41
19086;BME280;9675;51.538;6.728;2023-04-06T08:02:40;101299.72;;;7.07;56.81
19086;BME280;9675;51.538;6.728;2023-04-06T08:05:09;101305.28;;;7.13;56.68
19086;BME280;9675;51.538;6.728;2023-04-06T08:07:36;101306.59;;;7.20;56.59
19086;BME280;9675;51.538;6.728;2023-04-06T08:10:04;101307.13;;;7.28;56.36
19086;BME280;9675;51.538;6.728;2023-04-06T08:12:34;101312.88;;;7.37;56.62
19086;BME280;9675;51.538;6.728;2023-04-06T08:15:02;101309.19;;;7.45;56.37
19086;BME280;9675;51.538;6.728;2023-04-06T08:17:31;101311.38;;;7.52;55.72
19086;BME280;9675;51.538;6.728;2023-04-06T08:19:59;101306.91;;;7.61;55.95
19086;BME280;9675;51.538;6.728;2023-04-06T08:22:28;101307.53;;;7.70;55.17
19086;BME280;9675;51.538;6.728;2023-04-06T08:24:55;101309.91;;;7.80;55.86
19086;BME280;9675;51.538;6.728;2023-04-06T08:27:22;101308.84;;;7.90;55.32
19086;BME280;9675;51.538;6.728;2023-04-06T08:29:51;101306.00;;;7.98;55.11
19086;BME280;9675;51.538;6.728;2023-04-06T08:32:18;101296.94;;;8.03;54.58
19086;BME280;9675;51.538;6.728;2023-04-06T08:34:46;101304.56;;;8.15;54.72
19086;BME280;9675;51.538;6.728;2023-04-06T08:37:13;101300.16;;;8.26;54.34
19086;BME280;9675;51.538;6.728;2023-04-06T08:39:40;101295.75;;;8.36;54.79
19086;BME280;9675;51.538;6.728;2023-04-06T08:42:18;101299.03;;;8.47;53.31
19086;BME280;9675;51.538;6.728;2023-04-06T08:44:47;101299.53;;;8.55;53.45
19086;BME280;9675;51.538;6.728;2023-04-06T08:47:17;101287.28;;;8.64;53.03
19086;BME280;9675;51.538;6.728;2023-04-06T08:49:45;101291.44;;;8.75;52.88
19086;BME280;9675;51.538;6.728;2023-04-06T08:52:16;101282.63;;;8.84;52.49
19086;BME280;9675;51.538;6.728;2023-04-06T08:54:47;101286.78;;;8.95;52.21
19086;BME280;9675;51.538;6.728;2023-04-06T08:57:15;101284.16;;;9.09;51.98
19086;BME280;9675;51.538;6.728;2023-04-06T08:59:44;101286.72;;;9.22;51.70
19086;BME280;9675;51.538;6.728;2023-04-06T09:02:18;101279.56;;;9.31;50.29
19086;BME280;9675;51.538;6.728;2023-04-06T09:04:48;101274.19;;;9.41;50.80
19086;BME280;9675;51.538;6.728;2023-04-06T09:07:15;101280.88;;;9.52;51.18
19086;BME280;9675;51.538;6.728;2023-04-06T09:09:43;101277.06;;;9.60;50.59
19086;BME280;9675;51.538;6.728;2023-04-06T09:12:23;101281.97;;;9.70;50.74
19086;BME280;9675;51.538;6.728;2023-04-06T09:14:50;101279.94;;;9.79;49.35
19086;BME280;9675;51.538;6.728;2023-04-06T09:17:23;101276.31;;;9.91;49.51
19086;BME280;9675;51.538;6.728;2023-04-06T09:19:50;101271.09;;;10.04;49.10
19086;BME280;9675;51.538;6.728;2023-04-06T09:22:18;101270.84;;;10.14;49.42
19086;BME280;9675;51.538;6.728;2023-04-06T09:24:48;101274.75;;;10.22;49.30
19086;BME280;9675;51.538;6.728;2023-04-06T09:27:15;101264.13;;;10.31;48.49
19086;BME280;9675;51.538;6.728;2023-04-06T09:29:44;101269.06;;;10.42;48.62
19086;BME280;9675;51.538;6.728;2023-04-06T09:32:12;101280.88;;;10.53;49.01
19086;BME280;9675;51.538;6.728;2023-04-06T09:34:43;101270.22;;;10.62;48.72
19086;BME280;9675;51.538;6.728;2023-04-06T09:37:15;101269.72;;;10.69;48.38
19086;BME280;9675;51.538;6.728;2023-04-06T09:39:42;101272.75;;;10.77;47.73
19086;BME280;9675;51.538;6.728;2023-04-06T09:42:22;101268.88;;;10.85;47.76
19086;BME280;9675;51.538;6.728;2023-04-06T09:44:49;101270.22;;;10.93;47.64
19086;BME280;9675;51.538;6.728;2023-04-06T09:47:17;101265.38;;;10.99;47.20
19086;BME280;9675;51.538;6.728;2023-04-06T09:49:50;101266.50;;;11.04;46.56
19086;BME280;9675;51.538;6.728;2023-04-06T09:52:19;101256.53;;;11.10;47.06
19086;BME280;9675;51.538;6.728;2023-04-06T09:54:50;101268.97;;;11.17;46.61
19086;BME280;9675;51.538;6.728;2023-04-06T09:57:25;101271.78;;;11.22;46.50
19086;BME280;9675;51.538;6.728;2023-04-06T10:00:03;101258.34;;;11.27;46.04
19086;BME280;9675;51.538;6.728;2023-04-06T10:02:43;101264.63;;;11.32;46.12
19086;BME280;9675;51.538;6.728;2023-04-06T10:05:21;101252.84;;;11.37;45.56
19086;BME280;9675;51.538;6.728;2023-04-06T10:07:51;101250.59;;;11.43;46.03
19086;BME280;9675;51.538;6.728;2023-04-06T10:10:20;101257.03;;;11.51;46.00
19086;BME280;9675;51.538;6.728;2023-04-06T10:12:48;101253.09;;;11.58;45.28
19086;BME280;9675;51.538;6.728;2023-04-06T10:15:15;101254.31;;;11.65;45.50
19086;BME280;9675;51.538;6.728;2023-04-06T10:17:43;101252.22;;;11.74;45.18
19086;BME280;9675;51.538;6.728;2023-04-06T10:20:18;101258.81;;;11.85;45.15
19086;BME280;9675;51.538;6.728;2023-04-06T10:22:56;101254.13;;;11.94;45.77
19086;BME280;9675;51.538;6.728;2023-04-06T10:25:27;101253.69;;;12.03;45.17
19086;BME280;9675;51.538;6.728;2023-04-06T10:28:07;101249.13;;;12.15;45.06
19086;BME280;9675;51.538;6.728;2023-04-06T10:30:37;101252.97;;;12.23;44.96
19086;BME280;9675;51.538;6.728;2023-04-06T10:33:23;101251.75;;;12.32;44.66
19086;BME280;9675;51.538;6.728;2023-04-06T10:35:52;101256.47;;;12.41;45.20
19086;BME280;9675;51.538;6.728;2023-04-06T10:38:20;101255.06;;;12.48;45.61
19086;BME280;9675;51.538;6.728;2023-04-06T10:40:49;101256.31;;;12.56;44.64
19086;BME280;9675;51.538;6.728;2023-04-06T10:43:21;101250.63;;;12.63;44.59
19086;BME280;9675;51.538;6.728;2023-04-06T10:45:57;101249.22;;;12.69;44.64
19086;BME280;9675;51.538;6.728;2023-04-06T10:48:24;101255.34;;;12.71;44.92
19086;BME280;9675;51.538;6.728;2023-04-06T10:50:54;101252.03;;;12.74;43.89
19086;BME280;9675;51.538;6.728;2023-04-06T10:53:23;101252.16;;;12.77;44.31
19086;BME280;9675;51.538;6.728;2023-04-06T10:55:51;101255.84;;;12.82;45.26
19086;BME280;9675;51.538;6.728;2023-04-06T10:58:19;101251.66;;;12.84;44.83
19086;BME280;9675;51.538;6.728;2023-04-06T11:00:48;101248.22;;;12.85;44.79
19086;BME280;9675;51.538;6.728;2023-04-06T11:03:16;101251.19;;;12.93;45.24
19086;BME280;9675;51.538;6.728;2023-04-06T11:05:44;101251.47;;;12.99;45.63
19086;BME280;9675;51.538;6.728;2023-04-06T11:08:25;101254.06;;;12.99;44.36
19086;BME280;9675;51.538;6.728;2023-04-06T11:11:04;101247.47;;;13.05;45.51
19086;BME280;9675;51.538;6.728;2023-04-06T11:13:44;101249.34;;;13.27;45.82
19086;BME280;9675;51.538;6.728;2023-04-06T11:16:17;101243.56;;;13.71;45.69
19086;BME280;9675;51.538;6.728;2023-04-06T11:18:53;101246.00;;;14.08;44.56
19086;BME280;9675;51.538;6.728;2023-04-06T11:21:33;101246.19;;;14.33;44.18
19086;BME280;9675;51.538;6.728;2023-04-06T11:24:11;101246.75;;;14.68;43.91
19086;BME280;9675;51.538;6.728;2023-04-06T11:26:40;101240.84;;;14.94;43.08
19086;BME280;9675;51.538;6.728;2023-04-06T11:29:09;101235.38;;;15.09;42.51
19086;BME280;9675;51.538;6.728;2023-04-06T11:31:46;101239.16;;;15.17;42.52
19086;BME280;9675;51.538;6.728;2023-04-06T11:34:17;101237.84;;;15.28;42.53
19086;BME280;9675;51.538;6.728;2023-04-06T11:36:46;101242.06;;;15.26;42.52
19086;BME280;9675;51.538;6.728;2023-04-06T11:39:20;101244.56;;;15.23;42.65
19086;BME280;9675;51.538;6.728;2023-04-06T11:41:48;101236.72;;;15.21;42.35
19086;BME280;9675;51.538;6.728;2023-04-06T11:44:26;101238.75;;;15.30;42.46
19086;BME280;9675;51.538;6.728;2023-04-06T11:46:53;101238.56;;;15.48;42.39
19086;BME280;9675;51.538;6.728;2023-04-06T11:49:21;101232.97;;;15.59;42.40
19086;BME280;9675;51.538;6.728;2023-04-06T11:51:48;101238.34;;;15.65;42.52
19086;BME280;9675;51.538;6.728;2023-04-06T11:54:17;101233.50;;;15.75;42.30
19086;BME280;9675;51.538;6.728;2023-04-06T11:56:48;101231.22;;;15.84;42.40
19086;BME280;9675;51.538;6.728;2023-04-06T11:59:15;101231.41;;;15.90;42.48
19086;BME280;9675;51.538;6.728;2023-04-06T12:01:45;101229.59;;;15.87;42.67
19086;BME280;9675;51.538;6.728;2023-04-06T12:04:15;101231.28;;;15.87;42.69
19086;BME280;9675;51.538;6.728;2023-04-06T12:06:43;101234.94;;;15.92;42.49
19086;BME280;9675;51.538;6.728;2023-04-06T12:09:11;101235.94;;;15.95;42.72
19086;BME280;9675;51.538;6.728;2023-04-06T12:11:39;101232.34;;;15.92;42.68
19086;BME280;9675;51.538;6.728;2023-04-06T12:14:06;101229.75;;;15.92;42.52
19086;BME280;9675;51.538;6.728;2023-04-06T12:16:34;101230.69;;;15.94;42.83
19086;BME280;9675;51.538;6.728;2023-04-06T12:19:02;101223.66;;;15.91;42.56
19086;BME280;9675;51.538;6.728;2023-04-06T12:21:30;101225.88;;;15.81;42.55
19086;BME280;9675;51.538;6.728;2023-04-06T12:23:58;101230.16;;;15.79;42.67
19086;BME280;9675;51.538;6.728;2023-04-06T12:26:25;101218.06;;;15.79;42.81
19086;BME280;9675;51.538;6.728;2023-04-06T12:28:54;101225.19;;;15.85;43.01
19086;BME280;9675;51.538;6.728;2023-04-06T12:31:22;101232.41;;;15.93;42.72
19086;BME280;9675;51.538;6.728;2023-04-06T12:33:51;101229.97;;;15.98;42.71
19086;BME280;9675;51.538;6.728;2023-04-06T12:36:20;101226.63;;;16.02;42.80
19086;BME280;9675;51.538;6.728;2023-04-06T12:38:48;101227.41;;;15.99;42.93
19086;BME280;9675;51.538;6.728;2023-04-06T12:41:16;101225.66;;;15.98;42.78
19086;BME280;9675;51.538;6.728;2023-04-06T12:43:44;101228.41;;;16.03;43.06
19086;BME280;9675;51.538;6.728;2023-04-06T12:46:13;101231.81;;;16.02;42.92
19086;BME280;9675;51.538;6.728;2023-04-06T12:48:40;101219.47;;;15.95;42.97
19086;BME280;9675;51.538;6.728;2023-04-06T12:51:08;101227.25;;;15.95;43.03
19086;BME280;9675;51.538;6.728;2023-04-06T12:53:36;101222.09;;;15.96;42.92
19086;BME280;9675;51.538;6.728;2023-04-06T12:56:12;101224.88;;;16.01;42.72
19086;BME280;9675;51.538;6.728;2023-04-06T12:58:39;101223.31;;;16.06;42.87
19086;BME280;9675;51.538;6.728;2023-04-06T13:01:08;101228.59;;;16.09;42.73
19086;BME280;9675;51.538;6.728;2023-04-06T13:03:37;101221.63;;;16.08;43.25
19086;BME280;9675;51.538;6.728;2023-04-06T13:06:05;101221.44;;;16.02;43.53
19086;BME280;9675;51.538;6.728;2023-04-06T13:08:34;101219.69;;;16.01;43.58
19086;BME280;9675;51.538;6.728;2023-04-06T13:11:01;101228.34;;;16.01;43.64
19086;BME280;9675;51.538;6.728;2023-04-06T13:13:29;101218.69;;;15.97;43.79
19086;BME280;9675;51.538;6.728;2023-04-06T13:16:01;101225.72;;;16.01;43.86
19086;BME280;9675;51.538;6.728;2023-04-06T13:18:29;101230.06;;;16.01;44.11